Forside
METAR-TAF:

METAR-TAF

Lufthavne :

Monbetsu, Japan

Breddekreds: 44-15N, længdekreds: 143-32E, højde: 6 m

Aktuelle vejr

Denne rapport blev lavet for 1 time og 7 minutter siden, kl. 02:00 UTC
Vind 4 kt fra nord, varierende mellem nordvest og nordøst
Temperatur 13°C
Fugtighed 94%
Tryk 1001 hPa
Sigt: 6000 m
Nogle få skyer i en højde af 300 ft
Spredte skyer i en højde af 400 ft
Brudte skyer i en højde af 2000 ft
let regnbyger

METAR: RJEB 250200Z 36004KT 310V050 6000 -SHRA FEW003 SCT004 BKN020 13/12 Q1001

Tid: 12:07 (03:07 UTC)


TAF: fraværende

Vejrobservationer og prognoser fra mere end 4000 lufthavne (METAR og TAF).

De gule og røde prikker repræsenterer de meteorologiske stationer.

Flyt musen over at se navnet på stationen.

Så klik over at se vejr observationer og prognoser.

At skifte det kort: Klik på de grønne knapper med et sort kors for at zoome ind; på den grønne knap med en bindestreg for at zoome ud; eller på de grønne pile for tilstødende kort.


METAR-TAF: